sensor_id;sensor_type;location;lat;lon;timestamp;temperature;humidity
32215;DHT22;18708;53.124;23.190;2023-04-24T00:02:08;8.80;1.00
32215;DHT22;18708;53.124;23.190;2023-04-24T00:04:37;8.80;1.00
32215;DHT22;18708;53.124;23.190;2023-04-24T00:07:06;8.70;1.00
32215;DHT22;18708;53.124;23.190;2023-04-24T00:09:35;8.60;1.00
32215;DHT22;18708;53.124;23.190;2023-04-24T00:12:01;8.60;1.00
32215;DHT22;18708;53.124;23.190;2023-04-24T00:14:32;8.50;39.70
32215;DHT22;18708;53.124;23.190;2023-04-24T00:16:57;8.60;99.90
32215;DHT22;18708;53.124;23.190;2023-04-24T00:19:23;8.50;99.90
32215;DHT22;18708;53.124;23.190;2023-04-24T00:21:49;8.40;99.90
32215;DHT22;18708;53.124;23.190;2023-04-24T00:24:16;8.40;99.90
32215;DHT22;18708;53.124;23.190;2023-04-24T00:26:42;8.30;1.00
32215;DHT22;18708;53.124;23.190;2023-04-24T00:29:08;8.30;1.00
32215;DHT22;18708;53.124;23.190;2023-04-24T00:31:33;8.20;1.00
32215;DHT22;18708;53.124;23.190;2023-04-24T00:34:02;8.30;1.00
32215;DHT22;18708;53.124;23.190;2023-04-24T00:36:28;8.20;1.00
32215;DHT22;18708;53.124;23.190;2023-04-24T00:38:54;8.10;1.00
32215;DHT22;18708;53.124;23.190;2023-04-24T00:41:21;8.10;1.00
32215;DHT22;18708;53.124;23.190;2023-04-24T00:43:47;8.00;1.00
32215;DHT22;18708;53.124;23.190;2023-04-24T00:46:14;7.90;1.00
32215;DHT22;18708;53.124;23.190;2023-04-24T00:48:39;7.90;1.00
32215;DHT22;18708;53.124;23.190;2023-04-24T00:51:05;8.10;1.00
32215;DHT22;18708;53.124;23.190;2023-04-24T00:53:31;8.10;1.00
32215;DHT22;18708;53.124;23.190;2023-04-24T00:55:58;8.20;1.00
32215;DHT22;18708;53.124;23.190;2023-04-24T00:58:25;8.20;1.00
32215;DHT22;18708;53.124;23.190;2023-04-24T01:00:51;8.30;1.00
32215;DHT22;18708;53.124;23.190;2023-04-24T01:03:20;8.50;1.00
32215;DHT22;18708;53.124;23.190;2023-04-24T01:05:47;8.60;1.00
32215;DHT22;18708;53.124;23.190;2023-04-24T01:08:14;8.60;1.00
32215;DHT22;18708;53.124;23.190;2023-04-24T01:10:41;8.50;1.00
32215;DHT22;18708;53.124;23.190;2023-04-24T01:13:08;8.50;1.00
32215;DHT22;18708;53.124;23.190;2023-04-24T01:15:34;8.60;1.00
32215;DHT22;18708;53.124;23.190;2023-04-24T01:18:00;8.50;1.00
32215;DHT22;18708;53.124;23.190;2023-04-24T01:20:26;8.40;1.00
32215;DHT22;18708;53.124;23.190;2023-04-24T01:22:52;8.50;1.00
32215;DHT22;18708;53.124;23.190;2023-04-24T01:25:20;8.50;1.00
32215;DHT22;18708;53.124;23.190;2023-04-24T01:27:46;8.60;1.00
32215;DHT22;18708;53.124;23.190;2023-04-24T01:30:12;8.70;1.00
32215;DHT22;18708;53.124;23.190;2023-04-24T01:32:40;8.70;1.00
32215;DHT22;18708;53.124;23.190;2023-04-24T01:35:07;8.60;1.00
32215;DHT22;18708;53.124;23.190;2023-04-24T01:37:33;8.70;1.00
32215;DHT22;18708;53.124;23.190;2023-04-24T01:39:59;8.90;1.00
32215;DHT22;18708;53.124;23.190;2023-04-24T01:42:25;9.00;1.00
32215;DHT22;18708;53.124;23.190;2023-04-24T01:44:52;9.00;1.00
32215;DHT22;18708;53.124;23.190;2023-04-24T01:47:18;9.10;1.00
32215;DHT22;18708;53.124;23.190;2023-04-24T01:49:43;9.20;1.00
32215;DHT22;18708;53.124;23.190;2023-04-24T01:52:11;9.30;1.00
32215;DHT22;18708;53.124;23.190;2023-04-24T01:54:36;9.40;1.00
32215;DHT22;18708;53.124;23.190;2023-04-24T01:57:02;9.50;1.00
32215;DHT22;18708;53.124;23.190;2023-04-24T01:59:28;9.60;1.00
32215;DHT22;18708;53.124;23.190;2023-04-24T02:01:55;9.50;1.00
32215;DHT22;18708;53.124;23.190;2023-04-24T02:04:20;9.50;1.00
32215;DHT22;18708;53.124;23.190;2023-04-24T02:06:46;9.50;1.00
32215;DHT22;18708;53.124;23.190;2023-04-24T02:09:14;9.50;99.90
32215;DHT22;18708;53.124;23.190;2023-04-24T02:11:40;9.50;99.90
32215;DHT22;18708;53.124;23.190;2023-04-24T02:14:05;9.50;99.90
32215;DHT22;18708;53.124;23.190;2023-04-24T02:16:31;9.50;99.90
32215;DHT22;18708;53.124;23.190;2023-04-24T02:19:00;9.50;99.90
32215;DHT22;18708;53.124;23.190;2023-04-24T02:21:26;9.50;99.90
32215;DHT22;18708;53.124;23.190;2023-04-24T02:23:52;9.50;99.90
32215;DHT22;18708;53.124;23.190;2023-04-24T02:26:18;9.50;99.90
32215;DHT22;18708;53.124;23.190;2023-04-24T02:28:44;9.50;99.90
32215;DHT22;18708;53.124;23.190;2023-04-24T02:31:10;9.60;99.90
32215;DHT22;18708;53.124;23.190;2023-04-24T02:33:35;9.70;99.90
32215;DHT22;18708;53.124;23.190;2023-04-24T02:36:02;9.70;99.90
32215;DHT22;18708;53.124;23.190;2023-04-24T02:38:28;9.70;99.90
32215;DHT22;18708;53.124;23.190;2023-04-24T02:40:54;9.60;99.90
32215;DHT22;18708;53.124;23.190;2023-04-24T02:43:20;9.60;99.90
32215;DHT22;18708;53.124;23.190;2023-04-24T02:45:46;9.60;99.90
32215;DHT22;18708;53.124;23.190;2023-04-24T02:48:14;9.70;99.90
32215;DHT22;18708;53.124;23.190;2023-04-24T02:50:39;9.70;99.90
32215;DHT22;18708;53.124;23.190;2023-04-24T02:53:05;9.70;99.90
32215;DHT22;18708;53.124;23.190;2023-04-24T02:55:31;9.70;99.90
32215;DHT22;18708;53.124;23.190;2023-04-24T02:57:56;9.50;99.90
32215;DHT22;18708;53.124;23.190;2023-04-24T03:00:22;9.60;99.90
32215;DHT22;18708;53.124;23.190;2023-04-24T03:02:48;9.50;99.90
32215;DHT22;18708;53.124;23.190;2023-04-24T03:05:15;9.50;99.90
32215;DHT22;18708;53.124;23.190;2023-04-24T03:07:41;9.70;99.90
32215;DHT22;18708;53.124;23.190;2023-04-24T03:10:07;9.70;99.90
32215;DHT22;18708;53.124;23.190;2023-04-24T03:12:33;9.70;99.90
32215;DHT22;18708;53.124;23.190;2023-04-24T03:15:01;9.70;99.90
32215;DHT22;18708;53.124;23.190;2023-04-24T03:17:27;9.70;99.90
32215;DHT22;18708;53.124;23.190;2023-04-24T03:19:55;9.70;99.90
32215;DHT22;18708;53.124;23.190;2023-04-24T03:22:23;9.70;99.90
32215;DHT22;18708;53.124;23.190;2023-04-24T03:24:48;9.60;99.90
32215;DHT22;18708;53.124;23.190;2023-04-24T03:27:16;9.60;99.90
32215;DHT22;18708;53.124;23.190;2023-04-24T03:29:41;9.70;99.90
32215;DHT22;18708;53.124;23.190;2023-04-24T03:32:07;9.70;99.90
32215;DHT22;18708;53.124;23.190;2023-04-24T03:34:33;9.70;99.90
32215;DHT22;18708;53.124;23.190;2023-04-24T03:36:58;9.60;99.90
32215;DHT22;18708;53.124;23.190;2023-04-24T03:39:24;9.60;99.90
32215;DHT22;18708;53.124;23.190;2023-04-24T03:41:50;9.50;99.90
32215;DHT22;18708;53.124;23.190;2023-04-24T03:44:16;9.60;1.00
32215;DHT22;18708;53.124;23.190;2023-04-24T03:46:41;9.70;1.00
32215;DHT22;18708;53.124;23.190;2023-04-24T03:49:07;9.70;1.00
32215;DHT22;18708;53.124;23.190;2023-04-24T03:51:33;9.70;1.00
32215;DHT22;18708;53.124;23.190;2023-04-24T03:53:58;9.70;99.90
32215;DHT22;18708;53.124;23.190;2023-04-24T03:56:24;9.70;1.00
32215;DHT22;18708;53.124;23.190;2023-04-24T03:58:50;9.70;1.00
32215;DHT22;18708;53.124;23.190;2023-04-24T04:01:15;9.70;1.00
32215;DHT22;18708;53.124;23.190;2023-04-24T04:03:41;9.70;1.00
32215;DHT22;18708;53.124;23.190;2023-04-24T04:06:07;9.70;1.00
32215;DHT22;18708;53.124;23.190;2023-04-24T04:08:33;9.70;1.00
32215;DHT22;18708;53.124;23.190;2023-04-24T04:10:58;9.70;1.00
32215;DHT22;18708;53.124;23.190;2023-04-24T04:13:24;9.80;1.00
32215;DHT22;18708;53.124;23.190;2023-04-24T04:15:50;9.80;1.00
32215;DHT22;18708;53.124;23.190;2023-04-24T04:18:15;9.90;1.00
32215;DHT22;18708;53.124;23.190;2023-04-24T04:20:41;9.90;1.00
32215;DHT22;18708;53.124;23.190;2023-04-24T04:23:07;10.00;1.00
32215;DHT22;18708;53.124;23.190;2023-04-24T04:25:33;10.10;1.00
32215;DHT22;18708;53.124;23.190;2023-04-24T04:27:58;10.10;1.00
32215;DHT22;18708;53.124;23.190;2023-04-24T04:30:25;10.10;1.00
32215;DHT22;18708;53.124;23.190;2023-04-24T04:32:51;10.20;99.90
32215;DHT22;18708;53.124;23.190;2023-04-24T04:35:17;10.30;99.90
32215;DHT22;18708;53.124;23.190;2023-04-24T04:37:42;10.40;99.90
32215;DHT22;18708;53.124;23.190;2023-04-24T04:40:08;10.40;99.90
32215;DHT22;18708;53.124;23.190;2023-04-24T04:42:37;10.50;99.90
32215;DHT22;18708;53.124;23.190;2023-04-24T04:45:09;10.50;99.90
32215;DHT22;18708;53.124;23.190;2023-04-24T04:47:37;10.70;99.90
32215;DHT22;18708;53.124;23.190;2023-04-24T04:50:03;10.80;99.90
32215;DHT22;18708;53.124;23.190;2023-04-24T04:52:29;10.90;99.90
32215;DHT22;18708;53.124;23.190;2023-04-24T04:54:55;11.00;99.90
32215;DHT22;18708;53.124;23.190;2023-04-24T04:57:21;11.10;99.90
32215;DHT22;18708;53.124;23.190;2023-04-24T04:59:46;11.20;99.90
32215;DHT22;18708;53.124;23.190;2023-04-24T05:02:12;11.30;99.90
32215;DHT22;18708;53.124;23.190;2023-04-24T05:04:38;11.40;99.90
32215;DHT22;18708;53.124;23.190;2023-04-24T05:07:04;11.50;99.90
32215;DHT22;18708;53.124;23.190;2023-04-24T05:09:30;11.60;99.90
32215;DHT22;18708;53.124;23.190;2023-04-24T05:11:56;11.60;99.90
32215;DHT22;18708;53.124;23.190;2023-04-24T05:14:21;11.70;99.90
32215;DHT22;18708;53.124;23.190;2023-04-24T05:16:47;11.80;99.90
32215;DHT22;18708;53.124;23.190;2023-04-24T05:19:13;11.90;99.90
32215;DHT22;18708;53.124;23.190;2023-04-24T05:21:40;12.00;99.90
32215;DHT22;18708;53.124;23.190;2023-04-24T05:24:06;12.10;99.90
32215;DHT22;18708;53.124;23.190;2023-04-24T05:26:32;12.10;99.90
32215;DHT22;18708;53.124;23.190;2023-04-24T05:28:58;12.20;99.90
32215;DHT22;18708;53.124;23.190;2023-04-24T05:31:24;12.30;99.90
32215;DHT22;18708;53.124;23.190;2023-04-24T05:33:50;12.50;99.90
32215;DHT22;18708;53.124;23.190;2023-04-24T05:36:16;12.50;99.90
32215;DHT22;18708;53.124;23.190;2023-04-24T05:38:42;12.60;88.10
32215;DHT22;18708;53.124;23.190;2023-04-24T05:41:07;12.60;61.40
32215;DHT22;18708;53.124;23.190;2023-04-24T05:43:33;12.60;59.00
32215;DHT22;18708;53.124;23.190;2023-04-24T05:45:59;12.80;57.90
32215;DHT22;18708;53.124;23.190;2023-04-24T05:48:24;12.80;57.00
32215;DHT22;18708;53.124;23.190;2023-04-24T05:50:50;13.00;23.60
32215;DHT22;18708;53.124;23.190;2023-04-24T05:53:18;13.20;11.10
32215;DHT22;18708;53.124;23.190;2023-04-24T05:55:43;13.50;1.00
32215;DHT22;18708;53.124;23.190;2023-04-24T05:58:10;13.50;1.00
32215;DHT22;18708;53.124;23.190;2023-04-24T06:00:35;13.60;1.00
32215;DHT22;18708;53.124;23.190;2023-04-24T06:03:01;13.70;1.00
32215;DHT22;18708;53.124;23.190;2023-04-24T06:05:29;14.10;1.00
32215;DHT22;18708;53.124;23.190;2023-04-24T06:07:55;14.30;1.00
32215;DHT22;18708;53.124;23.190;2023-04-24T06:10:21;14.40;1.00
32215;DHT22;18708;53.124;23.190;2023-04-24T06:12:46;14.50;1.00
32215;DHT22;18708;53.124;23.190;2023-04-24T06:15:12;14.50;1.00
32215;DHT22;18708;53.124;23.190;2023-04-24T06:17:38;14.50;1.00
32215;DHT22;18708;53.124;23.190;2023-04-24T06:20:05;14.60;1.00
32215;DHT22;18708;53.124;23.190;2023-04-24T06:22:31;14.90;1.00
32215;DHT22;18708;53.124;23.190;2023-04-24T06:24:57;14.80;1.00
32215;DHT22;18708;53.124;23.190;2023-04-24T06:27:22;15.10;1.00
32215;DHT22;18708;53.124;23.190;2023-04-24T06:29:48;15.10;1.00
32215;DHT22;18708;53.124;23.190;2023-04-24T06:32:23;15.50;1.00
32215;DHT22;18708;53.124;23.190;2023-04-24T06:34:50;15.90;1.00
32215;DHT22;18708;53.124;23.190;2023-04-24T06:37:16;16.40;1.00
32215;DHT22;18708;53.124;23.190;2023-04-24T06:39:42;16.60;1.00
32215;DHT22;18708;53.124;23.190;2023-04-24T06:42:08;16.90;1.00
32215;DHT22;18708;53.124;23.190;2023-04-24T06:44:35;17.10;1.00
32215;DHT22;18708;53.124;23.190;2023-04-24T06:47:09;16.80;1.00
32215;DHT22;18708;53.124;23.190;2023-04-24T06:49:38;16.90;1.00
32215;DHT22;18708;53.124;23.190;2023-04-24T06:52:04;17.60;1.00
32215;DHT22;18708;53.124;23.190;2023-04-24T06:54:31;18.00;1.00
32215;DHT22;18708;53.124;23.190;2023-04-24T06:56:56;17.80;1.00
32215;DHT22;18708;53.124;23.190;2023-04-24T06:59:29;17.70;1.00
32215;DHT22;18708;53.124;23.190;2023-04-24T07:01:55;17.50;1.00
32215;DHT22;18708;53.124;23.190;2023-04-24T07:04:21;17.60;1.00
32215;DHT22;18708;53.124;23.190;2023-04-24T07:06:47;17.90;1.00
32215;DHT22;18708;53.124;23.190;2023-04-24T07:09:15;18.20;1.00
32215;DHT22;18708;53.124;23.190;2023-04-24T07:11:41;18.20;1.00
32215;DHT22;18708;53.124;23.190;2023-04-24T07:14:08;18.40;1.00
32215;DHT22;18708;53.124;23.190;2023-04-24T07:16:34;18.80;1.00
32215;DHT22;18708;53.124;23.190;2023-04-24T07:19:00;19.10;1.00
32215;DHT22;18708;53.124;23.190;2023-04-24T07:21:25;19.40;1.00
32215;DHT22;18708;53.124;23.190;2023-04-24T07:23:52;19.40;1.00
32215;DHT22;18708;53.124;23.190;2023-04-24T07:26:18;19.60;1.00
32215;DHT22;18708;53.124;23.190;2023-04-24T07:28:44;20.00;1.00
32215;DHT22;18708;53.124;23.190;2023-04-24T07:31:11;20.20;1.00
32215;DHT22;18708;53.124;23.190;2023-04-24T07:33:37;20.60;1.00
32215;DHT22;18708;53.124;23.190;2023-04-24T07:36:03;21.00;1.00
32215;DHT22;18708;53.124;23.190;2023-04-24T07:38:30;20.00;1.00
32215;DHT22;18708;53.124;23.190;2023-04-24T07:40:58;20.00;1.00
32215;DHT22;18708;53.124;23.190;2023-04-24T07:43:24;20.30;1.00
32215;DHT22;18708;53.124;23.190;2023-04-24T07:45:50;21.00;1.00
32215;DHT22;18708;53.124;23.190;2023-04-24T07:48:17;20.70;1.00
32215;DHT22;18708;53.124;23.190;2023-04-24T07:50:43;20.60;1.00
32215;DHT22;18708;53.124;23.190;2023-04-24T07:53:09;20.80;1.00
32215;DHT22;18708;53.124;23.190;2023-04-24T07:55:37;21.40;1.00
32215;DHT22;18708;53.124;23.190;2023-04-24T07:58:06;21.70;1.00
32215;DHT22;18708;53.124;23.190;2023-04-24T08:00:31;22.00;1.00
32215;DHT22;18708;53.124;23.190;2023-04-24T08:02:57;21.40;1.00
32215;DHT22;18708;53.124;23.190;2023-04-24T08:05:23;20.70;1.00
32215;DHT22;18708;53.124;23.190;2023-04-24T08:07:50;21.50;1.00
32215;DHT22;18708;53.124;23.190;2023-04-24T08:10:18;21.30;1.00
32215;DHT22;18708;53.124;23.190;2023-04-24T08:12:44;21.50;1.00
32215;DHT22;18708;53.124;23.190;2023-04-24T08:15:10;21.10;1.00
32215;DHT22;18708;53.124;23.190;2023-04-24T08:17:36;21.20;1.00
32215;DHT22;18708;53.124;23.190;2023-04-24T08:20:03;21.30;1.00
32215;DHT22;18708;53.124;23.190;2023-04-24T08:22:30;21.60;1.00
32215;DHT22;18708;53.124;23.190;2023-04-24T08:24:56;21.50;1.00
32215;DHT22;18708;53.124;23.190;2023-04-24T08:27:23;21.60;1.00
32215;DHT22;18708;53.124;23.190;2023-04-24T08:29:49;21.70;1.00
32215;DHT22;18708;53.124;23.190;2023-04-24T08:32:15;21.50;1.00
32215;DHT22;18708;53.124;23.190;2023-04-24T08:34:43;21.90;1.00
32215;DHT22;18708;53.124;23.190;2023-04-24T08:37:08;22.50;1.00
32215;DHT22;18708;53.124;23.190;2023-04-24T08:39:34;22.40;1.00
32215;DHT22;18708;53.124;23.190;2023-04-24T08:42:01;23.10;1.00
32215;DHT22;18708;53.124;23.190;2023-04-24T08:44:32;22.40;1.00
32215;DHT22;18708;53.124;23.190;2023-04-24T08:46:58;22.60;1.00
32215;DHT22;18708;53.124;23.190;2023-04-24T08:49:26;23.00;1.00
32215;DHT22;18708;53.124;23.190;2023-04-24T08:51:53;23.00;1.00
32215;DHT22;18708;53.124;23.190;2023-04-24T08:54:18;22.80;99.90
32215;DHT22;18708;53.124;23.190;2023-04-24T08:56:45;22.70;99.90
32215;DHT22;18708;53.124;23.190;2023-04-24T08:59:11;22.70;99.90
32215;DHT22;18708;53.124;23.190;2023-04-24T09:01:38;22.10;99.90
32215;DHT22;18708;53.124;23.190;2023-04-24T09:04:07;22.00;99.90
32215;DHT22;18708;53.124;23.190;2023-04-24T09:06:34;22.10;99.90
32215;DHT22;18708;53.124;23.190;2023-04-24T09:09:01;21.90;99.90
32215;DHT22;18708;53.124;23.190;2023-04-24T09:11:27;22.00;99.90
32215;DHT22;18708;53.124;23.190;2023-04-24T09:13:54;22.40;99.90
32215;DHT22;18708;53.124;23.190;2023-04-24T09:16:20;22.70;99.90
32215;DHT22;18708;53.124;23.190;2023-04-24T09:18:48;22.60;99.90
32215;DHT22;18708;53.124;23.190;2023-04-24T09:21:14;22.70;99.90
32215;DHT22;18708;53.124;23.190;2023-04-24T09:23:40;23.00;99.90
32215;DHT22;18708;53.124;23.190;2023-04-24T09:26:09;22.50;99.90
32215;DHT22;18708;53.124;23.190;2023-04-24T09:28:39;22.50;99.90
32215;DHT22;18708;53.124;23.190;2023-04-24T09:31:12;22.80;99.90
32215;DHT22;18708;53.124;23.190;2023-04-24T09:33:39;22.60;99.90
32215;DHT22;18708;53.124;23.190;2023-04-24T09:36:05;23.10;99.90
32215;DHT22;18708;53.124;23.190;2023-04-24T09:38:36;23.00;99.90
32215;DHT22;18708;53.124;23.190;2023-04-24T09:41:04;23.40;99.90
32215;DHT22;18708;53.124;23.190;2023-04-24T09:43:31;23.30;99.90
32215;DHT22;18708;53.124;23.190;2023-04-24T09:45:58;23.30;99.90
32215;DHT22;18708;53.124;23.190;2023-04-24T09:48:34;23.20;99.90
32215;DHT22;18708;53.124;23.190;2023-04-24T09:51:05;22.50;99.90
32215;DHT22;18708;53.124;23.190;2023-04-24T09:53:36;22.60;99.90
32215;DHT22;18708;53.124;23.190;2023-04-24T09:56:10;23.30;99.90
32215;DHT22;18708;53.124;23.190;2023-04-24T09:58:37;22.90;99.90
32215;DHT22;18708;53.124;23.190;2023-04-24T10:01:03;22.60;99.90
32215;DHT22;18708;53.124;23.190;2023-04-24T10:03:33;22.90;99.90
32215;DHT22;18708;53.124;23.190;2023-04-24T10:06:00;22.70;99.90
32215;DHT22;18708;53.124;23.190;2023-04-24T10:08:26;23.10;99.90
32215;DHT22;18708;53.124;23.190;2023-04-24T10:10:59;23.40;99.90
32215;DHT22;18708;53.124;23.190;2023-04-24T10:13:25;24.20;99.90
32215;DHT22;18708;53.124;23.190;2023-04-24T10:15:51;23.20;99.90
32215;DHT22;18708;53.124;23.190;2023-04-24T10:18:17;23.10;99.90
32215;DHT22;18708;53.124;23.190;2023-04-24T10:20:46;23.60;99.90
32215;DHT22;18708;53.124;23.190;2023-04-24T10:23:12;24.40;99.90
32215;DHT22;18708;53.124;23.190;2023-04-24T10:25:38;24.60;99.90
32215;DHT22;18708;53.124;23.190;2023-04-24T10:28:04;24.50;99.90
32215;DHT22;18708;53.124;23.190;2023-04-24T10:30:32;23.90;99.90
32215;DHT22;18708;53.124;23.190;2023-04-24T10:33:06;23.80;99.90
32215;DHT22;18708;53.124;23.190;2023-04-24T10:35:36;24.10;99.90
32215;DHT22;18708;53.124;23.190;2023-04-24T10:38:06;24.00;99.90
32215;DHT22;18708;53.124;23.190;2023-04-24T10:40:35;24.70;99.90
32215;DHT22;18708;53.124;23.190;2023-04-24T10:43:06;23.90;99.90
32215;DHT22;18708;53.124;23.190;2023-04-24T10:45:34;24.30;99.90
32215;DHT22;18708;53.124;23.190;2023-04-24T10:48:06;24.90;99.90
32215;DHT22;18708;53.124;23.190;2023-04-24T10:50:46;24.90;99.90
32215;DHT22;18708;53.124;23.190;2023-04-24T10:53:17;24.80;99.90
32215;DHT22;18708;53.124;23.190;2023-04-24T10:58:10;23.90;99.90
32215;DHT22;18708;53.124;23.190;2023-04-24T11:00:39;23.80;99.90
32215;DHT22;18708;53.124;23.190;2023-04-24T11:03:26;23.60;99.90
32215;DHT22;18708;53.124;23.190;2023-04-24T11:08:36;25.00;99.90
32215;DHT22;18708;53.124;23.190;2023-04-24T11:11:14;24.50;99.90
32215;DHT22;18708;53.124;23.190;2023-04-24T11:16:42;25.00;99.90
32215;DHT22;18708;53.124;23.190;2023-04-24T11:26:55;24.40;99.90
32215;DHT22;18708;53.124;23.190;2023-04-24T11:29:22;24.10;99.90
32215;DHT22;18708;53.124;23.190;2023-04-24T11:31:48;24.30;99.90
32215;DHT22;18708;53.124;23.190;2023-04-24T11:34:17;24.80;99.90
32215;DHT22;18708;53.124;23.190;2023-04-24T11:36:44;24.50;99.90
32215;DHT22;18708;53.124;23.190;2023-04-24T11:39:11;24.40;99.90
32215;DHT22;18708;53.124;23.190;2023-04-24T11:41:37;24.90;99.90
32215;DHT22;18708;53.124;23.190;2023-04-24T11:44:05;24.70;99.90
32215;DHT22;18708;53.124;23.190;2023-04-24T11:46:31;24.50;99.90
32215;DHT22;18708;53.124;23.190;2023-04-24T11:48:58;24.40;99.90
32215;DHT22;18708;53.124;23.190;2023-04-24T11:51:25;24.50;99.90
32215;DHT22;18708;53.124;23.190;2023-04-24T11:53:55;23.60;99.90
32215;DHT22;18708;53.124;23.190;2023-04-24T11:56:22;23.10;99.90
32215;DHT22;18708;53.124;23.190;2023-04-24T11:58:48;23.40;99.90
32215;DHT22;18708;53.124;23.190;2023-04-24T12:01:14;23.60;99.90
32215;DHT22;18708;53.124;23.190;2023-04-24T12:03:40;24.40;99.90
32215;DHT22;18708;53.124;23.190;2023-04-24T12:06:11;25.00;99.90
32215;DHT22;18708;53.124;23.190;2023-04-24T12:08:37;26.00;99.90
32215;DHT22;18708;53.124;23.190;2023-04-24T12:11:05;25.00;99.90
32215;DHT22;18708;53.124;23.190;2023-04-24T12:13:35;25.20;99.90
32215;DHT22;18708;53.124;23.190;2023-04-24T12:16:04;25.20;99.90
32215;DHT22;18708;53.124;23.190;2023-04-24T12:18:31;25.00;99.90
32215;DHT22;18708;53.124;23.190;2023-04-24T12:21:18;24.50;99.90
32215;DHT22;18708;53.124;23.190;2023-04-24T12:23:45;24.60;99.90
32215;DHT22;18708;53.124;23.190;2023-04-24T12:26:20;25.30;99.90
32215;DHT22;18708;53.124;23.190;2023-04-24T12:28:48;23.80;99.90
32215;DHT22;18708;53.124;23.190;2023-04-24T12:31:17;22.90;99.90
32215;DHT22;18708;53.124;23.190;2023-04-24T12:33:45;23.30;99.90
32215;DHT22;18708;53.124;23.190;2023-04-24T12:36:12;24.00;99.90
32215;DHT22;18708;53.124;23.190;2023-04-24T12:38:38;24.80;99.90
32215;DHT22;18708;53.124;23.190;2023-04-24T12:41:08;24.60;99.90
32215;DHT22;18708;53.124;23.190;2023-04-24T12:43:34;24.80;99.90
32215;DHT22;18708;53.124;23.190;2023-04-24T12:46:00;24.90;99.90
32215;DHT22;18708;53.124;23.190;2023-04-24T12:48:28;24.50;99.90
32215;DHT22;18708;53.124;23.190;2023-04-24T12:50:54;24.40;99.90
32215;DHT22;18708;53.124;23.190;2023-04-24T12:53:20;24.40;99.90
32215;DHT22;18708;53.124;23.190;2023-04-24T12:55:46;23.40;99.90
32215;DHT22;18708;53.124;23.190;2023-04-24T12:58:21;22.70;99.90
32215;DHT22;18708;53.124;23.190;2023-04-24T13:00:47;22.80;99.90
32215;DHT22;18708;53.124;23.190;2023-04-24T13:03:13;23.20;99.90
32215;DHT22;18708;53.124;23.190;2023-04-24T13:05:39;23.50;99.90
32215;DHT22;18708;53.124;23.190;2023-04-24T13:08:05;23.90;99.90
32215;DHT22;18708;53.124;23.190;2023-04-24T13:10:31;24.60;99.90
32215;DHT22;18708;53.124;23.190;2023-04-24T13:12:57;24.50;99.90
32215;DHT22;18708;53.124;23.190;2023-04-24T13:15:22;24.50;99.90
32215;DHT22;18708;53.124;23.190;2023-04-24T13:17:48;24.70;99.90
32215;DHT22;18708;53.124;23.190;2023-04-24T13:20:14;24.20;99.90
32215;DHT22;18708;53.124;23.190;2023-04-24T13:22:40;23.70;99.90
32215;DHT22;18708;53.124;23.190;2023-04-24T13:25:06;23.70;99.90
32215;DHT22;18708;53.124;23.190;2023-04-24T13:27:32;23.40;99.90
32215;DHT22;18708;53.124;23.190;2023-04-24T13:29:58;23.50;99.90
32215;DHT22;18708;53.124;23.190;2023-04-24T13:32:23;23.40;99.90
32215;DHT22;18708;53.124;23.190;2023-04-24T13:34:50;23.60;99.90
32215;DHT22;18708;53.124;23.190;2023-04-24T13:37:16;23.70;99.90
32215;DHT22;18708;53.124;23.190;2023-04-24T13:39:41;23.30;99.90
32215;DHT22;18708;53.124;23.190;2023-04-24T13:42:07;22.40;99.90
32215;DHT22;18708;53.124;23.190;2023-04-24T13:44:33;22.10;99.90
32215;DHT22;18708;53.124;23.190;2023-04-24T13:46:59;22.20;99.90
32215;DHT22;18708;53.124;23.190;2023-04-24T13:49:25;22.30;99.90
32215;DHT22;18708;53.124;23.190;2023-04-24T13:51:51;21.90;99.90
32215;DHT22;18708;53.124;23.190;2023-04-24T13:54:17;21.70;99.90
32215;DHT22;18708;53.124;23.190;2023-04-24T13:56:43;21.80;99.90
32215;DHT22;18708;53.124;23.190;2023-04-24T13:59:09;21.60;99.90
32215;DHT22;18708;53.124;23.190;2023-04-24T14:01:35;21.40;99.90
32215;DHT22;18708;53.124;23.190;2023-04-24T14:04:00;21.30;99.90
32215;DHT22;18708;53.124;23.190;2023-04-24T14:06:26;21.30;99.90
32215;DHT22;18708;53.124;23.190;2023-04-24T14:08:52;21.30;99.90
32215;DHT22;18708;53.124;23.190;2023-04-24T14:11:18;21.20;99.90
32215;DHT22;18708;53.124;23.190;2023-04-24T14:13:44;21.20;99.90
32215;DHT22;18708;53.124;23.190;2023-04-24T14:16:11;21.10;99.90
32215;DHT22;18708;53.124;23.190;2023-04-24T14:18:37;21.10;99.90
32215;DHT22;18708;53.124;23.190;2023-04-24T14:21:06;21.20;99.90
32215;DHT22;18708;53.124;23.190;2023-04-24T14:23:32;21.30;99.90
32215;DHT22;18708;53.124;23.190;2023-04-24T14:25:58;21.30;99.90
32215;DHT22;18708;53.124;23.190;2023-04-24T14:28:24;21.50;99.90
32215;DHT22;18708;53.124;23.190;2023-04-24T14:30:50;21.40;99.90
32215;DHT22;18708;53.124;23.190;2023-04-24T14:33:16;21.40;99.90
32215;DHT22;18708;53.124;23.190;2023-04-24T14:35:42;21.40;99.90
32215;DHT22;18708;53.124;23.190;2023-04-24T14:38:08;21.40;99.90
32215;DHT22;18708;53.124;23.190;2023-04-24T14:40:34;21.50;99.90
32215;DHT22;18708;53.124;23.190;2023-04-24T14:43:00;21.70;99.90
32215;DHT22;18708;53.124;23.190;2023-04-24T14:45:26;21.70;99.90
32215;DHT22;18708;53.124;23.190;2023-04-24T14:47:52;21.70;99.90
32215;DHT22;18708;53.124;23.190;2023-04-24T14:50:19;21.80;99.90
32215;DHT22;18708;53.124;23.190;2023-04-24T14:52:44;21.80;99.90
32215;DHT22;18708;53.124;23.190;2023-04-24T14:55:10;21.80;99.90
32215;DHT22;18708;53.124;23.190;2023-04-24T14:57:36;22.00;99.90
32215;DHT22;18708;53.124;23.190;2023-04-24T15:00:06;22.10;99.90
32215;DHT22;18708;53.124;23.190;2023-04-24T15:02:34;21.90;99.90
32215;DHT22;18708;53.124;23.190;2023-04-24T15:04:59;21.70;99.90
32215;DHT22;18708;53.124;23.190;2023-04-24T15:07:25;21.80;99.90
32215;DHT22;18708;53.124;23.190;2023-04-24T15:09:51;21.80;99.90
32215;DHT22;18708;53.124;23.190;2023-04-24T15:12:17;21.70;99.90
32215;DHT22;18708;53.124;23.190;2023-04-24T15:14:42;21.60;99.90
32215;DHT22;18708;53.124;23.190;2023-04-24T15:17:08;21.60;99.90
32215;DHT22;18708;53.124;23.190;2023-04-24T15:19:34;21.40;99.90
32215;DHT22;18708;53.124;23.190;2023-04-24T15:21:59;21.40;99.90
32215;DHT22;18708;53.124;23.190;2023-04-24T15:24:25;21.20;99.90
32215;DHT22;18708;53.124;23.190;2023-04-24T15:26:51;21.20;99.90
32215;DHT22;18708;53.124;23.190;2023-04-24T15:29:17;21.10;99.90
32215;DHT22;18708;53.124;23.190;2023-04-24T15:31:42;20.90;99.90
32215;DHT22;18708;53.124;23.190;2023-04-24T15:34:08;20.80;99.90
32215;DHT22;18708;53.124;23.190;2023-04-24T15:36:34;20.70;99.90
32215;DHT22;18708;53.124;23.190;2023-04-24T15:39:01;20.70;99.90